메인 페이지
METAR-TAF:

METAR-TAF

공항 :

푸앵트누아르, 콩고

위도: 04-49S, 경도: 011-54E, 고도: 17m

현재 날씨관측

예보는 43분 전, 22:00시(UTC)에 발표되었습니다.
서남서5kt
온도 24°C
습도 89%
기압 1015 hPa
시정: 7000m
고도 1000ft 상공 구름 보통
고도 2300ft 상공 구름 많음

METAR: FCPP 182200Z 25005KT 7000 SCT010 BKN023 24/22 Q1015 NOSIG

시각: 23:43 (22:43 UTC)

예보

예보는 5 시간 43분 전, 17:00시(UTC)에 발표되었습니다.
예보 대상 시간: 18일 18시부터 19일 18시까지 (UTC)
서남서6kt
시정: 8000m
고도 1000ft 상공 구름 보통
확률 30%
19일 03시부터 19일 07시까지 (UTC)
시정: 4000m
박무

TAF: FCPP 181700Z 1818/1918 24006KT 8000 SCT010 PROB30 1903/1907 4000 BR

4,000개 이상의 공항 관측 자료 및 예보 (METAR 및 TAF 보고).

지도상에서 검색 가능한 기상관측소가 노란 점과 빨간 점으로 표시되어 있습니다.

기상관측소 명을 보려면 표시 위로 마우스를 이동하세요.

날씨 관측과 예보를 보려면 클릭하세요.

지도 변경 : 확대하려면 엑스 표시가 있는 녹색 버튼, 축소하려면 빼기 표시가 있는 녹색 버튼, 다음 페이지의 지도를 보려면 녹색 화살표를 클릭하세요.


METAR-TAF: